sensor_id;sensor_type;location;lat;lon;timestamp;P1;durP1;ratioP1;P2;durP2;ratioP2
24873;SDS011;12945;42.648;23.370;2023-08-31T00:01:32;6.25;;;3.05;;
24873;SDS011;12945;42.648;23.370;2023-08-31T00:03:58;9.13;;;2.90;;
24873;SDS011;12945;42.648;23.370;2023-08-31T00:06:24;8.88;;;2.83;;
24873;SDS011;12945;42.648;23.370;2023-08-31T00:08:50;7.57;;;3.03;;
24873;SDS011;12945;42.648;23.370;2023-08-31T00:11:15;10.00;;;2.80;;
24873;SDS011;12945;42.648;23.370;2023-08-31T00:13:41;10.40;;;3.50;;
24873;SDS011;12945;42.648;23.370;2023-08-31T00:16:06;5.53;;;3.17;;
24873;SDS011;12945;42.648;23.370;2023-08-31T00:18:34;7.07;;;2.95;;
24873;SDS011;12945;42.648;23.370;2023-08-31T00:21:01;6.07;;;2.88;;
24873;SDS011;12945;42.648;23.370;2023-08-31T00:23:26;7.75;;;3.15;;
24873;SDS011;12945;42.648;23.370;2023-08-31T00:25:52;10.23;;;3.30;;
24873;SDS011;12945;42.648;23.370;2023-08-31T00:28:18;9.10;;;3.22;;
24873;SDS011;12945;42.648;23.370;2023-08-31T00:30:44;6.75;;;3.03;;
24873;SDS011;12945;42.648;23.370;2023-08-31T00:33:10;6.03;;;2.60;;
24873;SDS011;12945;42.648;23.370;2023-08-31T00:35:35;8.48;;;3.50;;
24873;SDS011;12945;42.648;23.370;2023-08-31T00:38:00;6.25;;;3.00;;
24873;SDS011;12945;42.648;23.370;2023-08-31T00:40:27;5.88;;;2.83;;
24873;SDS011;12945;42.648;23.370;2023-08-31T00:42:55;6.78;;;3.05;;
24873;SDS011;12945;42.648;23.370;2023-08-31T00:45:21;9.32;;;3.28;;
24873;SDS011;12945;42.648;23.370;2023-08-31T00:47:48;9.70;;;3.20;;
24873;SDS011;12945;42.648;23.370;2023-08-31T00:50:14;5.38;;;3.10;;
24873;SDS011;12945;42.648;23.370;2023-08-31T00:52:40;7.18;;;2.60;;
24873;SDS011;12945;42.648;23.370;2023-08-31T00:55:06;6.07;;;2.95;;
24873;SDS011;12945;42.648;23.370;2023-08-31T00:57:31;7.47;;;2.97;;
24873;SDS011;12945;42.648;23.370;2023-08-31T00:59:57;7.70;;;3.05;;
24873;SDS011;12945;42.648;23.370;2023-08-31T01:02:23;8.38;;;2.85;;
24873;SDS011;12945;42.648;23.370;2023-08-31T01:05:03;5.72;;;2.58;;
24873;SDS011;12945;42.648;23.370;2023-08-31T01:07:44;8.05;;;3.00;;
24873;SDS011;12945;42.648;23.370;2023-08-31T01:10:22;8.88;;;2.80;;
24873;SDS011;12945;42.648;23.370;2023-08-31T01:12:50;6.78;;;2.72;;
24873;SDS011;12945;42.648;23.370;2023-08-31T01:15:17;8.23;;;3.00;;
24873;SDS011;12945;42.648;23.370;2023-08-31T01:17:47;5.72;;;2.80;;
24873;SDS011;12945;42.648;23.370;2023-08-31T01:20:14;7.03;;;3.22;;
24873;SDS011;12945;42.648;23.370;2023-08-31T01:22:55;4.60;;;2.85;;
24873;SDS011;12945;42.648;23.370;2023-08-31T01:25:21;9.18;;;2.92;;
24873;SDS011;12945;42.648;23.370;2023-08-31T01:27:46;9.50;;;2.85;;
24873;SDS011;12945;42.648;23.370;2023-08-31T01:30:11;6.57;;;2.75;;
24873;SDS011;12945;42.648;23.370;2023-08-31T01:32:37;6.70;;;2.70;;
24873;SDS011;12945;42.648;23.370;2023-08-31T01:35:02;6.55;;;2.60;;
24873;SDS011;12945;42.648;23.370;2023-08-31T01:37:36;9.43;;;2.97;;
24873;SDS011;12945;42.648;23.370;2023-08-31T01:40:06;6.13;;;2.80;;
24873;SDS011;12945;42.648;23.370;2023-08-31T01:42:32;5.72;;;2.88;;
24873;SDS011;12945;42.648;23.370;2023-08-31T01:44:58;5.93;;;2.97;;
24873;SDS011;12945;42.648;23.370;2023-08-31T01:47:24;6.80;;;2.83;;
24873;SDS011;12945;42.648;23.370;2023-08-31T01:49:50;10.20;;;2.90;;
24873;SDS011;12945;42.648;23.370;2023-08-31T01:52:15;8.63;;;2.60;;
24873;SDS011;12945;42.648;23.370;2023-08-31T01:54:41;7.38;;;2.40;;
24873;SDS011;12945;42.648;23.370;2023-08-31T01:57:06;8.70;;;2.80;;
24873;SDS011;12945;42.648;23.370;2023-08-31T01:59:32;7.55;;;2.70;;
24873;SDS011;12945;42.648;23.370;2023-08-31T02:01:57;8.70;;;3.03;;
24873;SDS011;12945;42.648;23.370;2023-08-31T02:04:23;10.45;;;3.10;;
24873;SDS011;12945;42.648;23.370;2023-08-31T02:06:48;11.20;;;3.38;;
24873;SDS011;12945;42.648;23.370;2023-08-31T02:09:14;8.20;;;3.13;;
24873;SDS011;12945;42.648;23.370;2023-08-31T02:11:39;9.57;;;3.20;;
24873;SDS011;12945;42.648;23.370;2023-08-31T02:14:05;8.43;;;2.90;;
24873;SDS011;12945;42.648;23.370;2023-08-31T02:16:33;5.95;;;2.85;;
24873;SDS011;12945;42.648;23.370;2023-08-31T02:18:58;11.10;;;3.10;;
24873;SDS011;12945;42.648;23.370;2023-08-31T02:21:24;7.82;;;3.05;;
24873;SDS011;12945;42.648;23.370;2023-08-31T02:23:49;6.32;;;3.00;;
24873;SDS011;12945;42.648;23.370;2023-08-31T02:26:15;6.55;;;2.58;;
24873;SDS011;12945;42.648;23.370;2023-08-31T02:28:40;7.70;;;2.70;;
24873;SDS011;12945;42.648;23.370;2023-08-31T02:31:05;6.43;;;2.78;;
24873;SDS011;12945;42.648;23.370;2023-08-31T02:33:32;6.82;;;2.63;;
24873;SDS011;12945;42.648;23.370;2023-08-31T02:35:58;9.48;;;3.30;;
24873;SDS011;12945;42.648;23.370;2023-08-31T02:38:23;9.10;;;3.13;;
24873;SDS011;12945;42.648;23.370;2023-08-31T02:40:48;8.85;;;2.67;;
24873;SDS011;12945;42.648;23.370;2023-08-31T02:43:14;4.82;;;2.50;;
24873;SDS011;12945;42.648;23.370;2023-08-31T02:45:39;8.65;;;3.58;;
24873;SDS011;12945;42.648;23.370;2023-08-31T02:48:07;13.98;;;3.25;;
24873;SDS011;12945;42.648;23.370;2023-08-31T02:50:39;9.65;;;3.35;;
24873;SDS011;12945;42.648;23.370;2023-08-31T02:53:04;8.95;;;3.40;;
24873;SDS011;12945;42.648;23.370;2023-08-31T02:55:31;7.03;;;2.65;;
24873;SDS011;12945;42.648;23.370;2023-08-31T02:57:57;9.80;;;3.00;;
24873;SDS011;12945;42.648;23.370;2023-08-31T03:00:22;7.45;;;2.95;;
24873;SDS011;12945;42.648;23.370;2023-08-31T03:02:48;10.95;;;3.10;;
24873;SDS011;12945;42.648;23.370;2023-08-31T03:05:13;7.78;;;2.95;;
24873;SDS011;12945;42.648;23.370;2023-08-31T03:07:38;6.93;;;2.72;;
24873;SDS011;12945;42.648;23.370;2023-08-31T03:10:04;7.75;;;2.78;;
24873;SDS011;12945;42.648;23.370;2023-08-31T03:12:29;6.88;;;3.28;;
24873;SDS011;12945;42.648;23.370;2023-08-31T03:14:55;7.97;;;3.20;;
24873;SDS011;12945;42.648;23.370;2023-08-31T03:17:20;8.30;;;3.10;;
24873;SDS011;12945;42.648;23.370;2023-08-31T03:19:45;12.25;;;3.17;;
24873;SDS011;12945;42.648;23.370;2023-08-31T03:22:11;6.10;;;2.70;;
24873;SDS011;12945;42.648;23.370;2023-08-31T03:24:36;7.63;;;2.97;;
24873;SDS011;12945;42.648;23.370;2023-08-31T03:27:01;7.43;;;3.28;;
24873;SDS011;12945;42.648;23.370;2023-08-31T03:29:28;7.50;;;3.53;;
24873;SDS011;12945;42.648;23.370;2023-08-31T03:31:54;10.38;;;3.33;;
24873;SDS011;12945;42.648;23.370;2023-08-31T03:34:19;9.75;;;3.25;;
24873;SDS011;12945;42.648;23.370;2023-08-31T03:36:44;10.23;;;3.60;;
24873;SDS011;12945;42.648;23.370;2023-08-31T03:39:09;6.22;;;3.13;;
24873;SDS011;12945;42.648;23.370;2023-08-31T03:41:35;8.48;;;3.42;;
24873;SDS011;12945;42.648;23.370;2023-08-31T03:44:03;7.75;;;3.47;;
24873;SDS011;12945;42.648;23.370;2023-08-31T03:46:29;9.70;;;3.53;;
24873;SDS011;12945;42.648;23.370;2023-08-31T03:48:54;6.32;;;3.35;;
24873;SDS011;12945;42.648;23.370;2023-08-31T03:51:19;6.40;;;3.17;;
24873;SDS011;12945;42.648;23.370;2023-08-31T03:53:45;6.97;;;4.05;;
24873;SDS011;12945;42.648;23.370;2023-08-31T03:56:10;11.85;;;3.80;;
24873;SDS011;12945;42.648;23.370;2023-08-31T03:58:36;10.48;;;4.10;;
24873;SDS011;12945;42.648;23.370;2023-08-31T04:01:01;10.48;;;3.58;;
24873;SDS011;12945;42.648;23.370;2023-08-31T04:03:27;11.68;;;3.65;;
24873;SDS011;12945;42.648;23.370;2023-08-31T04:05:56;10.13;;;3.10;;
24873;SDS011;12945;42.648;23.370;2023-08-31T04:08:21;12.73;;;3.33;;
24873;SDS011;12945;42.648;23.370;2023-08-31T04:10:46;9.57;;;3.63;;
24873;SDS011;12945;42.648;23.370;2023-08-31T04:13:12;11.15;;;3.38;;
24873;SDS011;12945;42.648;23.370;2023-08-31T04:15:37;5.90;;;2.92;;
24873;SDS011;12945;42.648;23.370;2023-08-31T04:18:02;9.38;;;3.85;;
24873;SDS011;12945;42.648;23.370;2023-08-31T04:20:28;10.13;;;3.47;;
24873;SDS011;12945;42.648;23.370;2023-08-31T04:22:53;10.68;;;3.08;;
24873;SDS011;12945;42.648;23.370;2023-08-31T04:25:19;11.40;;;3.75;;
24873;SDS011;12945;42.648;23.370;2023-08-31T04:27:45;10.75;;;3.80;;
24873;SDS011;12945;42.648;23.370;2023-08-31T04:30:11;9.95;;;3.72;;
24873;SDS011;12945;42.648;23.370;2023-08-31T04:32:36;8.45;;;3.30;;
24873;SDS011;12945;42.648;23.370;2023-08-31T04:35:05;15.20;;;3.60;;
24873;SDS011;12945;42.648;23.370;2023-08-31T04:37:31;6.95;;;3.50;;
24873;SDS011;12945;42.648;23.370;2023-08-31T04:39:56;11.98;;;3.65;;
24873;SDS011;12945;42.648;23.370;2023-08-31T04:42:23;10.68;;;3.20;;
24873;SDS011;12945;42.648;23.370;2023-08-31T04:44:48;6.50;;;3.50;;
24873;SDS011;12945;42.648;23.370;2023-08-31T04:47:14;15.98;;;3.58;;
24873;SDS011;12945;42.648;23.370;2023-08-31T04:49:39;9.27;;;3.80;;
24873;SDS011;12945;42.648;23.370;2023-08-31T04:52:05;11.00;;;3.42;;
24873;SDS011;12945;42.648;23.370;2023-08-31T04:54:30;8.02;;;3.50;;
24873;SDS011;12945;42.648;23.370;2023-08-31T04:56:55;9.30;;;3.30;;
24873;SDS011;12945;42.648;23.370;2023-08-31T04:59:21;9.80;;;3.35;;
24873;SDS011;12945;42.648;23.370;2023-08-31T05:01:46;12.80;;;3.83;;
24873;SDS011;12945;42.648;23.370;2023-08-31T05:04:11;13.00;;;4.22;;
24873;SDS011;12945;42.648;23.370;2023-08-31T05:06:36;13.07;;;3.63;;
24873;SDS011;12945;42.648;23.370;2023-08-31T05:09:05;10.45;;;3.10;;
24873;SDS011;12945;42.648;23.370;2023-08-31T05:11:31;7.45;;;3.38;;
24873;SDS011;12945;42.648;23.370;2023-08-31T05:13:56;14.10;;;3.65;;
24873;SDS011;12945;42.648;23.370;2023-08-31T05:16:22;15.43;;;4.28;;
24873;SDS011;12945;42.648;23.370;2023-08-31T05:18:48;9.38;;;3.00;;
24873;SDS011;12945;42.648;23.370;2023-08-31T05:21:14;8.25;;;3.30;;
24873;SDS011;12945;42.648;23.370;2023-08-31T05:23:39;10.05;;;3.67;;
24873;SDS011;12945;42.648;23.370;2023-08-31T05:26:04;11.93;;;3.60;;
24873;SDS011;12945;42.648;23.370;2023-08-31T05:28:30;9.88;;;3.65;;
24873;SDS011;12945;42.648;23.370;2023-08-31T05:30:55;6.32;;;2.97;;
24873;SDS011;12945;42.648;23.370;2023-08-31T05:33:22;12.50;;;3.42;;
24873;SDS011;12945;42.648;23.370;2023-08-31T05:35:47;9.23;;;3.13;;
24873;SDS011;12945;42.648;23.370;2023-08-31T05:38:13;11.35;;;3.42;;
24873;SDS011;12945;42.648;23.370;2023-08-31T05:40:38;14.63;;;3.78;;
24873;SDS011;12945;42.648;23.370;2023-08-31T05:43:04;12.90;;;3.88;;
24873;SDS011;12945;42.648;23.370;2023-08-31T05:45:35;10.70;;;4.05;;
24873;SDS011;12945;42.648;23.370;2023-08-31T05:48:00;14.35;;;4.38;;
24873;SDS011;12945;42.648;23.370;2023-08-31T05:50:26;9.60;;;3.97;;
24873;SDS011;12945;42.648;23.370;2023-08-31T05:52:52;9.68;;;3.92;;
24873;SDS011;12945;42.648;23.370;2023-08-31T05:55:17;11.52;;;4.05;;
24873;SDS011;12945;42.648;23.370;2023-08-31T05:57:42;11.07;;;3.50;;
24873;SDS011;12945;42.648;23.370;2023-08-31T06:00:08;9.82;;;3.97;;
24873;SDS011;12945;42.648;23.370;2023-08-31T06:02:34;13.90;;;3.53;;
24873;SDS011;12945;42.648;23.370;2023-08-31T06:05:00;12.32;;;3.10;;
24873;SDS011;12945;42.648;23.370;2023-08-31T06:07:26;9.32;;;2.80;;
24873;SDS011;12945;42.648;23.370;2023-08-31T06:09:51;7.38;;;2.50;;
24873;SDS011;12945;42.648;23.370;2023-08-31T06:12:16;14.98;;;5.88;;
24873;SDS011;12945;42.648;23.370;2023-08-31T06:14:42;19.75;;;5.38;;
24873;SDS011;12945;42.648;23.370;2023-08-31T06:17:07;17.48;;;4.80;;
24873;SDS011;12945;42.648;23.370;2023-08-31T06:19:33;14.35;;;3.88;;
24873;SDS011;12945;42.648;23.370;2023-08-31T06:21:59;7.03;;;3.45;;
24873;SDS011;12945;42.648;23.370;2023-08-31T06:24:24;14.95;;;3.45;;
24873;SDS011;12945;42.648;23.370;2023-08-31T06:26:49;8.00;;;3.10;;
24873;SDS011;12945;42.648;23.370;2023-08-31T06:29:14;12.18;;;3.17;;
24873;SDS011;12945;42.648;23.370;2023-08-31T06:31:40;7.78;;;3.10;;
24873;SDS011;12945;42.648;23.370;2023-08-31T06:34:06;8.95;;;3.00;;
24873;SDS011;12945;42.648;23.370;2023-08-31T06:36:34;7.60;;;2.60;;
24873;SDS011;12945;42.648;23.370;2023-08-31T06:38:59;6.53;;;2.78;;
24873;SDS011;12945;42.648;23.370;2023-08-31T06:41:24;7.10;;;2.60;;
24873;SDS011;12945;42.648;23.370;2023-08-31T06:43:50;7.38;;;2.53;;
24873;SDS011;12945;42.648;23.370;2023-08-31T06:46:15;8.10;;;3.05;;
24873;SDS011;12945;42.648;23.370;2023-08-31T06:48:40;6.70;;;2.95;;
24873;SDS011;12945;42.648;23.370;2023-08-31T06:51:06;7.57;;;3.03;;
24873;SDS011;12945;42.648;23.370;2023-08-31T06:53:31;7.28;;;3.00;;
24873;SDS011;12945;42.648;23.370;2023-08-31T06:55:56;13.73;;;2.83;;
24873;SDS011;12945;42.648;23.370;2023-08-31T06:58:22;12.43;;;3.17;;
24873;SDS011;12945;42.648;23.370;2023-08-31T07:00:47;13.02;;;3.15;;
24873;SDS011;12945;42.648;23.370;2023-08-31T07:03:13;10.63;;;3.28;;
24873;SDS011;12945;42.648;23.370;2023-08-31T07:05:41;10.55;;;3.30;;
24873;SDS011;12945;42.648;23.370;2023-08-31T07:08:06;9.60;;;3.40;;
24873;SDS011;12945;42.648;23.370;2023-08-31T07:10:33;10.88;;;3.67;;
24873;SDS011;12945;42.648;23.370;2023-08-31T07:13:00;7.07;;;3.05;;
24873;SDS011;12945;42.648;23.370;2023-08-31T07:15:26;8.95;;;3.20;;
24873;SDS011;12945;42.648;23.370;2023-08-31T07:17:51;9.75;;;3.15;;
24873;SDS011;12945;42.648;23.370;2023-08-31T07:20:17;9.60;;;3.80;;
24873;SDS011;12945;42.648;23.370;2023-08-31T07:22:42;11.57;;;3.83;;
24873;SDS011;12945;42.648;23.370;2023-08-31T07:25:07;8.30;;;3.40;;
24873;SDS011;12945;42.648;23.370;2023-08-31T07:27:33;15.63;;;3.65;;
24873;SDS011;12945;42.648;23.370;2023-08-31T07:29:58;11.23;;;3.95;;
24873;SDS011;12945;42.648;23.370;2023-08-31T07:32:24;14.73;;;3.58;;
24873;SDS011;12945;42.648;23.370;2023-08-31T07:34:49;10.35;;;3.58;;
24873;SDS011;12945;42.648;23.370;2023-08-31T07:37:15;10.57;;;3.65;;
24873;SDS011;12945;42.648;23.370;2023-08-31T07:39:40;9.15;;;3.70;;
24873;SDS011;12945;42.648;23.370;2023-08-31T07:42:05;15.48;;;3.58;;
24873;SDS011;12945;42.648;23.370;2023-08-31T07:44:31;8.68;;;3.63;;
24873;SDS011;12945;42.648;23.370;2023-08-31T07:46:56;12.85;;;3.50;;
24873;SDS011;12945;42.648;23.370;2023-08-31T07:49:22;10.65;;;3.53;;
24873;SDS011;12945;42.648;23.370;2023-08-31T07:51:47;9.48;;;3.70;;
24873;SDS011;12945;42.648;23.370;2023-08-31T07:54:19;12.30;;;4.03;;
24873;SDS011;12945;42.648;23.370;2023-08-31T07:56:44;10.80;;;3.28;;
24873;SDS011;12945;42.648;23.370;2023-08-31T07:59:10;12.20;;;3.28;;
24873;SDS011;12945;42.648;23.370;2023-08-31T08:01:35;12.05;;;3.47;;
24873;SDS011;12945;42.648;23.370;2023-08-31T08:04:01;13.25;;;3.40;;
24873;SDS011;12945;42.648;23.370;2023-08-31T08:06:26;9.75;;;3.03;;
24873;SDS011;12945;42.648;23.370;2023-08-31T08:08:52;10.65;;;3.22;;
24873;SDS011;12945;42.648;23.370;2023-08-31T08:11:17;9.63;;;3.38;;
24873;SDS011;12945;42.648;23.370;2023-08-31T08:13:43;11.45;;;3.42;;
24873;SDS011;12945;42.648;23.370;2023-08-31T08:16:08;14.00;;;3.55;;
24873;SDS011;12945;42.648;23.370;2023-08-31T08:18:34;13.02;;;3.60;;
24873;SDS011;12945;42.648;23.370;2023-08-31T08:20:59;12.30;;;3.03;;
24873;SDS011;12945;42.648;23.370;2023-08-31T08:23:24;12.45;;;3.20;;
24873;SDS011;12945;42.648;23.370;2023-08-31T08:25:50;12.97;;;3.60;;
24873;SDS011;12945;42.648;23.370;2023-08-31T08:28:15;11.43;;;3.67;;
24873;SDS011;12945;42.648;23.370;2023-08-31T08:30:41;11.70;;;5.82;;
24873;SDS011;12945;42.648;23.370;2023-08-31T08:33:07;11.20;;;6.20;;
24873;SDS011;12945;42.648;23.370;2023-08-31T08:35:33;9.48;;;5.30;;
24873;SDS011;12945;42.648;23.370;2023-08-31T08:37:58;7.18;;;5.30;;
24873;SDS011;12945;42.648;23.370;2023-08-31T08:40:24;11.45;;;5.80;;
24873;SDS011;12945;42.648;23.370;2023-08-31T08:42:50;8.90;;;5.13;;
24873;SDS011;12945;42.648;23.370;2023-08-31T08:45:17;8.13;;;5.28;;
24873;SDS011;12945;42.648;23.370;2023-08-31T08:47:44;11.80;;;4.72;;
24873;SDS011;12945;42.648;23.370;2023-08-31T08:50:11;14.05;;;5.15;;
24873;SDS011;12945;42.648;23.370;2023-08-31T08:52:39;10.95;;;5.20;;
24873;SDS011;12945;42.648;23.370;2023-08-31T08:55:04;15.15;;;5.03;;
24873;SDS011;12945;42.648;23.370;2023-08-31T08:57:30;8.98;;;4.82;;
24873;SDS011;12945;42.648;23.370;2023-08-31T08:59:57;8.23;;;4.45;;
24873;SDS011;12945;42.648;23.370;2023-08-31T09:02:22;8.13;;;4.57;;
24873;SDS011;12945;42.648;23.370;2023-08-31T09:04:47;10.30;;;5.25;;
24873;SDS011;12945;42.648;23.370;2023-08-31T09:07:13;11.23;;;4.82;;
24873;SDS011;12945;42.648;23.370;2023-08-31T09:09:48;9.63;;;4.97;;
24873;SDS011;12945;42.648;23.370;2023-08-31T09:12:14;8.25;;;5.38;;
24873;SDS011;12945;42.648;23.370;2023-08-31T09:14:40;11.25;;;5.43;;
24873;SDS011;12945;42.648;23.370;2023-08-31T09:17:05;6.65;;;4.72;;
24873;SDS011;12945;42.648;23.370;2023-08-31T09:19:31;9.15;;;4.63;;
24873;SDS011;12945;42.648;23.370;2023-08-31T09:21:56;14.57;;;5.43;;
24873;SDS011;12945;42.648;23.370;2023-08-31T09:24:22;9.63;;;4.85;;
24873;SDS011;12945;42.648;23.370;2023-08-31T09:26:53;8.55;;;5.28;;
24873;SDS011;12945;42.648;23.370;2023-08-31T09:29:18;10.07;;;5.18;;
24873;SDS011;12945;42.648;23.370;2023-08-31T09:31:44;9.68;;;5.13;;
24873;SDS011;12945;42.648;23.370;2023-08-31T09:34:10;6.15;;;4.55;;
24873;SDS011;12945;42.648;23.370;2023-08-31T09:36:36;9.07;;;4.90;;
24873;SDS011;12945;42.648;23.370;2023-08-31T09:39:01;6.93;;;4.93;;
24873;SDS011;12945;42.648;23.370;2023-08-31T09:41:27;8.60;;;4.95;;
24873;SDS011;12945;42.648;23.370;2023-08-31T09:43:52;7.68;;;4.95;;
24873;SDS011;12945;42.648;23.370;2023-08-31T09:46:18;9.77;;;5.15;;
24873;SDS011;12945;42.648;23.370;2023-08-31T09:48:43;7.30;;;4.78;;
24873;SDS011;12945;42.648;23.370;2023-08-31T09:51:09;8.95;;;4.93;;
24873;SDS011;12945;42.648;23.370;2023-08-31T09:53:35;16.27;;;5.05;;
24873;SDS011;12945;42.648;23.370;2023-08-31T09:56:01;10.65;;;5.22;;
24873;SDS011;12945;42.648;23.370;2023-08-31T09:58:27;7.53;;;4.97;;
24873;SDS011;12945;42.648;23.370;2023-08-31T10:00:53;8.05;;;5.32;;
24873;SDS011;12945;42.648;23.370;2023-08-31T10:03:20;8.13;;;5.00;;
24873;SDS011;12945;42.648;23.370;2023-08-31T10:05:46;6.93;;;4.78;;
24873;SDS011;12945;42.648;23.370;2023-08-31T10:08:11;11.23;;;5.20;;
24873;SDS011;12945;42.648;23.370;2023-08-31T10:10:37;10.98;;;5.07;;
24873;SDS011;12945;42.648;23.370;2023-08-31T10:13:04;6.90;;;4.90;;
24873;SDS011;12945;42.648;23.370;2023-08-31T10:15:33;10.45;;;4.82;;
24873;SDS011;12945;42.648;23.370;2023-08-31T10:17:59;11.97;;;5.10;;
24873;SDS011;12945;42.648;23.370;2023-08-31T10:20:25;11.73;;;5.13;;
24873;SDS011;12945;42.648;23.370;2023-08-31T10:22:53;12.15;;;5.05;;
24873;SDS011;12945;42.648;23.370;2023-08-31T10:25:19;8.82;;;4.90;;
24873;SDS011;12945;42.648;23.370;2023-08-31T10:27:44;7.32;;;4.88;;
24873;SDS011;12945;42.648;23.370;2023-08-31T10:30:20;6.55;;;4.82;;
24873;SDS011;12945;42.648;23.370;2023-08-31T10:35:51;9.48;;;5.40;;
24873;SDS011;12945;42.648;23.370;2023-08-31T10:38:23;10.55;;;5.20;;
24873;SDS011;12945;42.648;23.370;2023-08-31T10:43:51;7.63;;;5.00;;
24873;SDS011;12945;42.648;23.370;2023-08-31T10:48:51;11.00;;;5.15;;
24873;SDS011;12945;42.648;23.370;2023-08-31T10:51:17;8.45;;;5.55;;
24873;SDS011;12945;42.648;23.370;2023-08-31T10:53:45;11.98;;;5.10;;
24873;SDS011;12945;42.648;23.370;2023-08-31T10:56:10;11.80;;;6.00;;
24873;SDS011;12945;42.648;23.370;2023-08-31T10:58:36;9.00;;;5.55;;
24873;SDS011;12945;42.648;23.370;2023-08-31T11:01:01;7.60;;;5.40;;
24873;SDS011;12945;42.648;23.370;2023-08-31T11:03:29;7.10;;;5.22;;
24873;SDS011;12945;42.648;23.370;2023-08-31T11:05:54;6.40;;;4.85;;
24873;SDS011;12945;42.648;23.370;2023-08-31T11:08:23;7.60;;;4.72;;
24873;SDS011;12945;42.648;23.370;2023-08-31T11:10:48;9.38;;;5.00;;
24873;SDS011;12945;42.648;23.370;2023-08-31T11:13:20;6.93;;;4.65;;
24873;SDS011;12945;42.648;23.370;2023-08-31T11:15:47;11.80;;;4.57;;
24873;SDS011;12945;42.648;23.370;2023-08-31T11:18:14;6.53;;;4.70;;
24873;SDS011;12945;42.648;23.370;2023-08-31T11:20:42;7.38;;;4.07;;
24873;SDS011;12945;42.648;23.370;2023-08-31T11:23:07;10.77;;;4.47;;
24873;SDS011;12945;42.648;23.370;2023-08-31T11:25:33;7.53;;;4.50;;
24873;SDS011;12945;42.648;23.370;2023-08-31T11:28:00;8.70;;;5.07;;
24873;SDS011;12945;42.648;23.370;2023-08-31T11:30:26;6.25;;;4.32;;
24873;SDS011;12945;42.648;23.370;2023-08-31T11:32:51;8.93;;;4.80;;
24873;SDS011;12945;42.648;23.370;2023-08-31T11:35:18;6.75;;;4.50;;
24873;SDS011;12945;42.648;23.370;2023-08-31T11:37:43;10.35;;;5.07;;
24873;SDS011;12945;42.648;23.370;2023-08-31T11:40:10;7.28;;;4.10;;
24873;SDS011;12945;42.648;23.370;2023-08-31T11:42:35;6.68;;;4.05;;
24873;SDS011;12945;42.648;23.370;2023-08-31T11:45:00;5.93;;;4.07;;
24873;SDS011;12945;42.648;23.370;2023-08-31T11:47:30;8.85;;;4.13;;
24873;SDS011;12945;42.648;23.370;2023-08-31T11:49:55;6.60;;;3.83;;
24873;SDS011;12945;42.648;23.370;2023-08-31T11:52:20;8.77;;;4.32;;
24873;SDS011;12945;42.648;23.370;2023-08-31T11:54:46;7.35;;;4.30;;
24873;SDS011;12945;42.648;23.370;2023-08-31T11:57:16;7.53;;;3.88;;
24873;SDS011;12945;42.648;23.370;2023-08-31T11:59:42;6.53;;;3.75;;
24873;SDS011;12945;42.648;23.370;2023-08-31T12:02:08;7.70;;;3.75;;
24873;SDS011;12945;42.648;23.370;2023-08-31T12:04:33;12.68;;;4.00;;
24873;SDS011;12945;42.648;23.370;2023-08-31T12:07:06;6.63;;;3.78;;
24873;SDS011;12945;42.648;23.370;2023-08-31T12:09:32;6.35;;;3.70;;
24873;SDS011;12945;42.648;23.370;2023-08-31T12:11:57;10.13;;;4.05;;
24873;SDS011;12945;42.648;23.370;2023-08-31T12:14:24;6.25;;;3.83;;
24873;SDS011;12945;42.648;23.370;2023-08-31T12:16:51;10.57;;;3.97;;
24873;SDS011;12945;42.648;23.370;2023-08-31T12:19:16;7.63;;;3.92;;
24873;SDS011;12945;42.648;23.370;2023-08-31T12:21:42;5.00;;;3.30;;
24873;SDS011;12945;42.648;23.370;2023-08-31T12:24:07;6.18;;;3.85;;
24873;SDS011;12945;42.648;23.370;2023-08-31T12:26:34;6.13;;;3.78;;
24873;SDS011;12945;42.648;23.370;2023-08-31T12:29:00;6.43;;;3.67;;
24873;SDS011;12945;42.648;23.370;2023-08-31T12:31:25;8.48;;;3.75;;
24873;SDS011;12945;42.648;23.370;2023-08-31T12:33:51;5.75;;;3.92;;
24873;SDS011;12945;42.648;23.370;2023-08-31T12:36:16;6.00;;;3.55;;
24873;SDS011;12945;42.648;23.370;2023-08-31T12:38:41;5.93;;;3.50;;
24873;SDS011;12945;42.648;23.370;2023-08-31T12:41:07;7.47;;;3.53;;
24873;SDS011;12945;42.648;23.370;2023-08-31T12:43:33;5.53;;;3.55;;
24873;SDS011;12945;42.648;23.370;2023-08-31T12:45:58;7.70;;;3.75;;
24873;SDS011;12945;42.648;23.370;2023-08-31T12:48:24;8.43;;;3.53;;
24873;SDS011;12945;42.648;23.370;2023-08-31T12:50:49;6.22;;;3.80;;
24873;SDS011;12945;42.648;23.370;2023-08-31T12:53:14;6.23;;;3.23;;
24873;SDS011;12945;42.648;23.370;2023-08-31T12:55:40;6.20;;;3.60;;
24873;SDS011;12945;42.648;23.370;2023-08-31T12:58:07;9.73;;;3.92;;
24873;SDS011;12945;42.648;23.370;2023-08-31T13:00:33;6.18;;;3.42;;
24873;SDS011;12945;42.648;23.370;2023-08-31T13:02:59;7.72;;;3.90;;
24873;SDS011;12945;42.648;23.370;2023-08-31T13:05:24;7.28;;;3.70;;
24873;SDS011;12945;42.648;23.370;2023-08-31T13:07:50;6.35;;;3.38;;
24873;SDS011;12945;42.648;23.370;2023-08-31T13:10:16;8.10;;;3.70;;
24873;SDS011;12945;42.648;23.370;2023-08-31T13:12:41;6.95;;;3.90;;
24873;SDS011;12945;42.648;23.370;2023-08-31T13:15:07;4.68;;;3.42;;
24873;SDS011;12945;42.648;23.370;2023-08-31T13:17:33;7.00;;;3.25;;
24873;SDS011;12945;42.648;23.370;2023-08-31T13:19:58;6.95;;;3.70;;
24873;SDS011;12945;42.648;23.370;2023-08-31T13:22:24;11.48;;;3.53;;
24873;SDS011;12945;42.648;23.370;2023-08-31T13:24:49;9.57;;;3.60;;
24873;SDS011;12945;42.648;23.370;2023-08-31T13:27:15;14.50;;;3.63;;
24873;SDS011;12945;42.648;23.370;2023-08-31T13:29:41;9.43;;;3.45;;
24873;SDS011;12945;42.648;23.370;2023-08-31T13:32:07;7.90;;;3.60;;
24873;SDS011;12945;42.648;23.370;2023-08-31T13:34:33;8.85;;;3.95;;
24873;SDS011;12945;42.648;23.370;2023-08-31T13:36:58;6.38;;;3.53;;
24873;SDS011;12945;42.648;23.370;2023-08-31T13:39:25;7.35;;;3.33;;
24873;SDS011;12945;42.648;23.370;2023-08-31T13:41:50;9.32;;;3.65;;
24873;SDS011;12945;42.648;23.370;2023-08-31T13:44:16;10.93;;;3.85;;
24873;SDS011;12945;42.648;23.370;2023-08-31T13:46:42;7.07;;;3.65;;
24873;SDS011;12945;42.648;23.370;2023-08-31T13:49:07;9.32;;;3.35;;
24873;SDS011;12945;42.648;23.370;2023-08-31T13:51:32;8.23;;;3.42;;
24873;SDS011;12945;42.648;23.370;2023-08-31T13:53:58;7.85;;;3.53;;
24873;SDS011;12945;42.648;23.370;2023-08-31T13:56:23;6.75;;;3.60;;
24873;SDS011;12945;42.648;23.370;2023-08-31T13:58:48;7.38;;;3.72;;
24873;SDS011;12945;42.648;23.370;2023-08-31T14:01:14;10.02;;;3.60;;
24873;SDS011;12945;42.648;23.370;2023-08-31T14:03:39;11.35;;;3.78;;
24873;SDS011;12945;42.648;23.370;2023-08-31T14:06:04;9.48;;;3.65;;
24873;SDS011;12945;42.648;23.370;2023-08-31T14:08:30;7.72;;;3.40;;
24873;SDS011;12945;42.648;23.370;2023-08-31T14:10:55;7.22;;;3.53;;
24873;SDS011;12945;42.648;23.370;2023-08-31T14:13:21;6.97;;;3.38;;
24873;SDS011;12945;42.648;23.370;2023-08-31T14:15:46;8.07;;;3.30;;
24873;SDS011;12945;42.648;23.370;2023-08-31T14:18:12;7.72;;;3.65;;
24873;SDS011;12945;42.648;23.370;2023-08-31T14:20:38;13.23;;;3.25;;
24873;SDS011;12945;42.648;23.370;2023-08-31T14:23:03;15.73;;;3.33;;
24873;SDS011;12945;42.648;23.370;2023-08-31T14:25:29;9.88;;;3.33;;
24873;SDS011;12945;42.648;23.370;2023-08-31T14:27:54;9.45;;;3.53;;
24873;SDS011;12945;42.648;23.370;2023-08-31T14:30:20;11.60;;;3.30;;
24873;SDS011;12945;42.648;23.370;2023-08-31T14:32:45;6.97;;;3.22;;